sensor_id;sensor_type;location;lat;lon;timestamp;pressure;altitude;pressure_sealevel;temperature;humidity
49297;BME280;35163;48.878;18.040;2023-03-04T00:01:15;98546.50;;;1.50;57.56
49297;BME280;35163;48.878;18.040;2023-03-04T00:03:42;98540.59;;;1.59;57.66
49297;BME280;35163;48.878;18.040;2023-03-04T00:06:08;98548.25;;;1.59;57.76
49297;BME280;35163;48.878;18.040;2023-03-04T00:08:37;98543.97;;;1.55;57.71
49297;BME280;35163;48.878;18.040;2023-03-04T00:11:03;98531.22;;;1.53;57.68
49297;BME280;35163;48.878;18.040;2023-03-04T00:13:30;98536.41;;;1.64;57.06
49297;BME280;35163;48.878;18.040;2023-03-04T00:15:57;98532.13;;;1.63;57.33
49297;BME280;35163;48.878;18.040;2023-03-04T00:18:23;98539.81;;;1.65;57.07
49297;BME280;35163;48.878;18.040;2023-03-04T00:20:50;98540.63;;;1.65;57.57
49297;BME280;35163;48.878;18.040;2023-03-04T00:23:16;98545.72;;;1.59;58.60
49297;BME280;35163;48.878;18.040;2023-03-04T00:25:43;98547.41;;;1.58;58.70
49297;BME280;35163;48.878;18.040;2023-03-04T00:28:10;98547.38;;;1.54;59.22
49297;BME280;35163;48.878;18.040;2023-03-04T00:30:36;98545.59;;;1.47;59.01
49297;BME280;35163;48.878;18.040;2023-03-04T00:33:03;98538.81;;;1.45;59.92
49297;BME280;35163;48.878;18.040;2023-03-04T00:35:29;98535.41;;;1.45;59.86
49297;BME280;35163;48.878;18.040;2023-03-04T00:37:56;98537.94;;;1.43;59.72
49297;BME280;35163;48.878;18.040;2023-03-04T00:40:22;98540.47;;;1.37;60.63
49297;BME280;35163;48.878;18.040;2023-03-04T00:42:54;98532.75;;;1.31;61.15
49297;BME280;35163;48.878;18.040;2023-03-04T00:45:20;98538.69;;;1.27;61.08
49297;BME280;35163;48.878;18.040;2023-03-04T00:47:47;98535.28;;;1.28;61.52
49297;BME280;35163;48.878;18.040;2023-03-04T00:50:13;98530.16;;;1.25;60.80
49297;BME280;35163;48.878;18.040;2023-03-04T00:52:40;98537.81;;;1.25;61.77
49297;BME280;35163;48.878;18.040;2023-03-04T00:55:07;98529.28;;;1.23;61.50
49297;BME280;35163;48.878;18.040;2023-03-04T00:57:34;98519.97;;;1.23;61.60
49297;BME280;35163;48.878;18.040;2023-03-04T01:00:01;98519.94;;;1.21;61.18
49297;BME280;35163;48.878;18.040;2023-03-04T01:02:27;98520.75;;;1.17;61.67
49297;BME280;35163;48.878;18.040;2023-03-04T01:04:54;98519.03;;;1.15;62.15
49297;BME280;35163;48.878;18.040;2023-03-04T01:07:21;98513.94;;;1.12;62.07
49297;BME280;35163;48.878;18.040;2023-03-04T01:09:47;98510.53;;;1.11;62.11
49297;BME280;35163;48.878;18.040;2023-03-04T01:12:14;98513.06;;;1.11;62.10
49297;BME280;35163;48.878;18.040;2023-03-04T01:14:40;98507.97;;;1.11;62.19
49297;BME280;35163;48.878;18.040;2023-03-04T01:17:07;98501.16;;;1.10;62.07
49297;BME280;35163;48.878;18.040;2023-03-04T01:19:33;98496.91;;;1.06;62.56
49297;BME280;35163;48.878;18.040;2023-03-04T01:22:00;98496.88;;;1.03;62.47
49297;BME280;35163;48.878;18.040;2023-03-04T01:24:26;98490.94;;;1.04;62.33
49297;BME280;35163;48.878;18.040;2023-03-04T01:26:55;98490.94;;;1.07;62.82
49297;BME280;35163;48.878;18.040;2023-03-04T01:29:22;98479.00;;;1.00;62.29
49297;BME280;35163;48.878;18.040;2023-03-04T01:31:48;98474.78;;;1.00;63.26
49297;BME280;35163;48.878;18.040;2023-03-04T01:34:15;98474.78;;;1.00;62.03
49297;BME280;35163;48.878;18.040;2023-03-04T01:36:43;98475.63;;;1.01;63.08
49297;BME280;35163;48.878;18.040;2023-03-04T01:39:09;98467.13;;;0.99;62.65
49297;BME280;35163;48.878;18.040;2023-03-04T01:41:36;98467.13;;;0.99;63.08
49297;BME280;35163;48.878;18.040;2023-03-04T01:44:03;98466.22;;;0.93;63.60
49297;BME280;35163;48.878;18.040;2023-03-04T01:46:30;98467.91;;;0.93;63.18
49297;BME280;35163;48.878;18.040;2023-03-04T01:48:57;98466.22;;;0.90;63.58
49297;BME280;35163;48.878;18.040;2023-03-04T01:51:24;98464.44;;;0.84;63.52
49297;BME280;35163;48.878;18.040;2023-03-04T01:53:51;98466.19;;;0.87;63.68
49297;BME280;35163;48.878;18.040;2023-03-04T01:56:27;98462.81;;;0.91;63.79
49297;BME280;35163;48.878;18.040;2023-03-04T01:59:14;98454.34;;;0.92;64.38
49297;BME280;35163;48.878;18.040;2023-03-04T02:01:59;98455.16;;;0.91;63.83
49297;BME280;35163;48.878;18.040;2023-03-04T02:04:31;98453.47;;;0.90;63.78
49297;BME280;35163;48.878;18.040;2023-03-04T02:07:01;98456.00;;;0.86;63.75
49297;BME280;35163;48.878;18.040;2023-03-04T02:09:29;98456.00;;;0.86;64.23
49297;BME280;35163;48.878;18.040;2023-03-04T02:11:56;98459.31;;;0.80;63.97
49297;BME280;35163;48.878;18.040;2023-03-04T02:14:23;98455.03;;;0.74;64.69
49297;BME280;35163;48.878;18.040;2023-03-04T02:16:50;98451.66;;;0.74;64.96
49297;BME280;35163;48.878;18.040;2023-03-04T02:19:41;98444.84;;;0.76;64.15
49297;BME280;35163;48.878;18.040;2023-03-04T02:22:11;98449.09;;;0.74;64.71
49297;BME280;35163;48.878;18.040;2023-03-04T02:24:42;98446.56;;;0.77;64.18
49297;BME280;35163;48.878;18.040;2023-03-04T02:27:10;98439.75;;;0.72;64.72
49297;BME280;35163;48.878;18.040;2023-03-04T02:29:37;98440.59;;;0.71;65.18
49297;BME280;35163;48.878;18.040;2023-03-04T02:32:04;98431.28;;;0.72;65.01
49297;BME280;35163;48.878;18.040;2023-03-04T02:34:33;98430.38;;;0.68;64.85
49297;BME280;35163;48.878;18.040;2023-03-04T02:37:02;98434.59;;;0.66;64.61
49297;BME280;35163;48.878;18.040;2023-03-04T02:39:31;98438.03;;;0.68;64.77
49297;BME280;35163;48.878;18.040;2023-03-04T02:42:00;98429.50;;;0.63;65.24
49297;BME280;35163;48.878;18.040;2023-03-04T02:44:28;98423.53;;;0.63;64.92
49297;BME280;35163;48.878;18.040;2023-03-04T02:46:56;98420.16;;;0.64;65.79
49297;BME280;35163;48.878;18.040;2023-03-04T02:49:24;98411.69;;;0.66;64.95
49297;BME280;35163;48.878;18.040;2023-03-04T02:51:56;98420.13;;;0.62;65.58
49297;BME280;35163;48.878;18.040;2023-03-04T02:54:24;98411.59;;;0.55;65.65
49297;BME280;35163;48.878;18.040;2023-03-04T02:56:52;98413.31;;;0.55;65.41
49297;BME280;35163;48.878;18.040;2023-03-04T02:59:21;98408.22;;;0.55;66.13
49297;BME280;35163;48.878;18.040;2023-03-04T03:01:48;98403.13;;;0.56;65.99
49297;BME280;35163;48.878;18.040;2023-03-04T03:04:15;98408.22;;;0.55;65.05
49297;BME280;35163;48.878;18.040;2023-03-04T03:06:42;98404.78;;;0.50;66.27
49297;BME280;35163;48.878;18.040;2023-03-04T03:09:08;98407.28;;;0.46;65.74
49297;BME280;35163;48.878;18.040;2023-03-04T03:11:35;98403.00;;;0.42;66.27
49297;BME280;35163;48.878;18.040;2023-03-04T03:14:02;98402.97;;;0.38;66.24
49297;BME280;35163;48.878;18.040;2023-03-04T03:16:29;98403.78;;;0.36;66.67
49297;BME280;35163;48.878;18.040;2023-03-04T03:18:56;98415.63;;;0.34;66.44
49297;BME280;35163;48.878;18.040;2023-03-04T03:21:23;98406.31;;;0.33;66.07
49297;BME280;35163;48.878;18.040;2023-03-04T03:23:49;98403.78;;;0.35;66.50
49297;BME280;35163;48.878;18.040;2023-03-04T03:26:17;98408.81;;;0.29;67.21
49297;BME280;35163;48.878;18.040;2023-03-04T03:28:43;98403.75;;;0.30;66.73
49297;BME280;35163;48.878;18.040;2023-03-04T03:31:10;98405.41;;;0.30;66.74
49297;BME280;35163;48.878;18.040;2023-03-04T03:33:37;98400.34;;;0.30;67.15
49297;BME280;35163;48.878;18.040;2023-03-04T03:36:04;98392.72;;;0.30;66.67
49297;BME280;35163;48.878;18.040;2023-03-04T03:38:31;98391.03;;;0.30;67.37
49297;BME280;35163;48.878;18.040;2023-03-04T03:40:58;98378.28;;;0.29;67.53
49297;BME280;35163;48.878;18.040;2023-03-04T03:43:24;98370.63;;;0.26;67.56
49297;BME280;35163;48.878;18.040;2023-03-04T03:45:51;98376.56;;;0.28;67.92
49297;BME280;35163;48.878;18.040;2023-03-04T03:48:17;98366.38;;;0.28;67.01
49297;BME280;35163;48.878;18.040;2023-03-04T03:50:44;98363.03;;;0.29;67.48
49297;BME280;35163;48.878;18.040;2023-03-04T03:53:11;98364.72;;;0.30;67.57
49297;BME280;35163;48.878;18.040;2023-03-04T03:55:37;98361.31;;;0.28;67.35
49297;BME280;35163;48.878;18.040;2023-03-04T03:58:04;98358.75;;;0.24;67.18
49297;BME280;35163;48.878;18.040;2023-03-04T04:00:31;98362.09;;;0.20;67.07
49297;BME280;35163;48.878;18.040;2023-03-04T04:02:59;98364.66;;;0.22;67.05
49297;BME280;35163;48.878;18.040;2023-03-04T04:05:26;98366.31;;;0.17;67.27
49297;BME280;35163;48.878;18.040;2023-03-04T04:07:52;98356.97;;;0.16;67.71
49297;BME280;35163;48.878;18.040;2023-03-04T04:10:19;98364.59;;;0.17;67.68
49297;BME280;35163;48.878;18.040;2023-03-04T04:12:47;98368.88;;;0.20;68.25
49297;BME280;35163;48.878;18.040;2023-03-04T04:15:13;98364.56;;;0.14;67.95
49297;BME280;35163;48.878;18.040;2023-03-04T04:17:40;98362.88;;;0.13;68.00
49297;BME280;35163;48.878;18.040;2023-03-04T04:20:07;98362.00;;;0.11;68.34
49297;BME280;35163;48.878;18.040;2023-03-04T04:22:34;98355.19;;;0.07;68.51
49297;BME280;35163;48.878;18.040;2023-03-04T04:25:00;98361.09;;;0.06;68.11
49297;BME280;35163;48.878;18.040;2023-03-04T04:27:27;98356.91;;;0.09;68.42
49297;BME280;35163;48.878;18.040;2023-03-04T04:29:54;98357.78;;;0.10;68.29
49297;BME280;35163;48.878;18.040;2023-03-04T04:32:20;98345.00;;;0.05;68.61
49297;BME280;35163;48.878;18.040;2023-03-04T04:34:47;98337.41;;;0.07;68.08
49297;BME280;35163;48.878;18.040;2023-03-04T04:37:16;98342.50;;;0.08;68.17
49297;BME280;35163;48.878;18.040;2023-03-04T04:39:43;98346.72;;;0.08;68.08
49297;BME280;35163;48.878;18.040;2023-03-04T04:42:10;98348.41;;;0.09;67.85
49297;BME280;35163;48.878;18.040;2023-03-04T04:44:37;98359.41;;;0.05;68.72
49297;BME280;35163;48.878;18.040;2023-03-04T04:47:08;98359.41;;;0.03;67.60
49297;BME280;35163;48.878;18.040;2023-03-04T04:49:37;98356.84;;;0.00;68.49
49297;BME280;35163;48.878;18.040;2023-03-04T04:52:04;98359.38;;;0.00;68.22
49297;BME280;35163;48.878;18.040;2023-03-04T04:54:31;98361.88;;;-0.02;68.20
49297;BME280;35163;48.878;18.040;2023-03-04T04:56:57;98364.41;;;-0.02;68.74
49297;BME280;35163;48.878;18.040;2023-03-04T04:59:24;98366.06;;;-0.07;67.92
49297;BME280;35163;48.878;18.040;2023-03-04T05:01:50;98371.19;;;-0.05;68.07
49297;BME280;35163;48.878;18.040;2023-03-04T05:04:17;98367.75;;;-0.07;68.22
49297;BME280;35163;48.878;18.040;2023-03-04T05:06:43;98368.56;;;-0.11;68.14
49297;BME280;35163;48.878;18.040;2023-03-04T05:09:11;98367.75;;;-0.10;68.69
49297;BME280;35163;48.878;18.040;2023-03-04T05:11:38;98368.53;;;-0.13;67.88
49297;BME280;35163;48.878;18.040;2023-03-04T05:14:04;98369.44;;;-0.08;68.18
49297;BME280;35163;48.878;18.040;2023-03-04T05:16:31;98362.66;;;-0.09;67.27
49297;BME280;35163;48.878;18.040;2023-03-04T05:18:58;98363.47;;;-0.10;67.84
49297;BME280;35163;48.878;18.040;2023-03-04T05:21:25;98364.34;;;-0.08;67.54
49297;BME280;35163;48.878;18.040;2023-03-04T05:23:51;98364.28;;;-0.16;68.03
49297;BME280;35163;48.878;18.040;2023-03-04T05:26:18;98364.28;;;-0.17;67.72
49297;BME280;35163;48.878;18.040;2023-03-04T05:28:45;98367.63;;;-0.18;68.58
49297;BME280;35163;48.878;18.040;2023-03-04T05:31:12;98361.69;;;-0.19;68.17
49297;BME280;35163;48.878;18.040;2023-03-04T05:33:39;98359.13;;;-0.22;68.27
49297;BME280;35163;48.878;18.040;2023-03-04T05:36:06;98364.22;;;-0.19;67.71
49297;BME280;35163;48.878;18.040;2023-03-04T05:38:35;98368.50;;;-0.16;67.96
49297;BME280;35163;48.878;18.040;2023-03-04T05:41:04;98366.72;;;-0.23;68.49
49297;BME280;35163;48.878;18.040;2023-03-04T05:43:32;98370.09;;;-0.28;68.49
49297;BME280;35163;48.878;18.040;2023-03-04T05:46:02;98369.22;;;-0.28;68.68
49297;BME280;35163;48.878;18.040;2023-03-04T05:48:29;98366.66;;;-0.30;68.61
49297;BME280;35163;48.878;18.040;2023-03-04T05:50:58;98370.88;;;-0.32;69.19
49297;BME280;35163;48.878;18.040;2023-03-04T05:53:25;98364.09;;;-0.33;69.22
49297;BME280;35163;48.878;18.040;2023-03-04T05:55:52;98361.59;;;-0.30;69.45
49297;BME280;35163;48.878;18.040;2023-03-04T05:58:19;98360.69;;;-0.35;69.40
49297;BME280;35163;48.878;18.040;2023-03-04T06:00:46;98358.16;;;-0.32;69.47
49297;BME280;35163;48.878;18.040;2023-03-04T06:03:18;98357.31;;;-0.31;69.16
49297;BME280;35163;48.878;18.040;2023-03-04T06:05:45;98357.38;;;-0.28;68.85
49297;BME280;35163;48.878;18.040;2023-03-04T06:08:12;98352.25;;;-0.31;69.16
49297;BME280;35163;48.878;18.040;2023-03-04T06:10:39;98365.84;;;-0.26;69.31
49297;BME280;35163;48.878;18.040;2023-03-04T06:13:08;98360.84;;;-0.22;69.14
49297;BME280;35163;48.878;18.040;2023-03-04T06:15:35;98364.28;;;-0.16;69.65
49297;BME280;35163;48.878;18.040;2023-03-04T06:18:02;98369.38;;;-0.14;69.31
49297;BME280;35163;48.878;18.040;2023-03-04T06:20:29;98367.78;;;-0.06;68.75
49297;BME280;35163;48.878;18.040;2023-03-04T06:22:55;98367.84;;;0.02;68.87
49297;BME280;35163;48.878;18.040;2023-03-04T06:25:22;98373.03;;;0.11;67.98
49297;BME280;35163;48.878;18.040;2023-03-04T06:27:49;98370.63;;;0.26;67.85
49297;BME280;35163;48.878;18.040;2023-03-04T06:30:17;98378.38;;;0.38;67.13
49297;BME280;35163;48.878;18.040;2023-03-04T06:32:43;98374.25;;;0.51;67.02
49297;BME280;35163;48.878;18.040;2023-03-04T06:35:11;98380.25;;;0.59;65.96
49297;BME280;35163;48.878;18.040;2023-03-04T06:37:38;98385.38;;;0.63;66.18
49297;BME280;35163;48.878;18.040;2023-03-04T06:40:06;98390.47;;;0.67;66.03
49297;BME280;35163;48.878;18.040;2023-03-04T06:42:34;98389.69;;;0.73;66.04
49297;BME280;35163;48.878;18.040;2023-03-04T06:45:02;98388.94;;;0.85;65.15
49297;BME280;35163;48.878;18.040;2023-03-04T06:47:29;98393.25;;;0.97;65.27
49297;BME280;35163;48.878;18.040;2023-03-04T06:49:55;98389.06;;;1.07;64.56
49297;BME280;35163;48.878;18.040;2023-03-04T06:52:22;98394.25;;;1.19;64.07
49297;BME280;35163;48.878;18.040;2023-03-04T06:54:48;98385.81;;;1.27;64.23
49297;BME280;35163;48.878;18.040;2023-03-04T06:57:15;98392.63;;;1.31;63.49
49297;BME280;35163;48.878;18.040;2023-03-04T06:59:42;98396.09;;;1.44;63.52
49297;BME280;35163;48.878;18.040;2023-03-04T07:02:12;98396.97;;;1.51;62.88
49297;BME280;35163;48.878;18.040;2023-03-04T07:04:39;98398.72;;;1.61;63.21
49297;BME280;35163;48.878;18.040;2023-03-04T07:07:05;98398.75;;;1.72;63.10
49297;BME280;35163;48.878;18.040;2023-03-04T07:09:32;98391.97;;;1.74;62.65
49297;BME280;35163;48.878;18.040;2023-03-04T07:11:59;98403.06;;;1.87;62.87
49297;BME280;35163;48.878;18.040;2023-03-04T07:14:25;98401.38;;;1.92;61.89
49297;BME280;35163;48.878;18.040;2023-03-04T07:16:53;98391.22;;;2.00;61.86
49297;BME280;35163;48.878;18.040;2023-03-04T07:19:20;98392.91;;;1.97;62.45
49297;BME280;35163;48.878;18.040;2023-03-04T07:21:47;98398.88;;;2.05;62.34
49297;BME280;35163;48.878;18.040;2023-03-04T07:24:14;98396.31;;;2.11;62.84
49297;BME280;35163;48.878;18.040;2023-03-04T07:26:40;98388.69;;;2.14;62.54
49297;BME280;35163;48.878;18.040;2023-03-04T07:29:07;98389.56;;;2.29;62.04
49297;BME280;35163;48.878;18.040;2023-03-04T07:31:34;98387.88;;;2.34;62.42
49297;BME280;35163;48.878;18.040;2023-03-04T07:34:03;98386.19;;;2.35;61.21
49297;BME280;35163;48.878;18.040;2023-03-04T07:36:31;98387.91;;;2.47;61.42
49297;BME280;35163;48.878;18.040;2023-03-04T07:38:57;98385.34;;;2.54;61.39
49297;BME280;35163;48.878;18.040;2023-03-04T07:41:26;98379.41;;;2.59;61.47
49297;BME280;35163;48.878;18.040;2023-03-04T07:43:55;98381.09;;;2.67;61.53
49297;BME280;35163;48.878;18.040;2023-03-04T07:46:21;98384.50;;;2.66;61.58
49297;BME280;35163;48.878;18.040;2023-03-04T07:48:48;98385.34;;;2.61;62.05
49297;BME280;35163;48.878;18.040;2023-03-04T07:51:20;98384.47;;;2.82;61.13
49297;BME280;35163;48.878;18.040;2023-03-04T07:53:50;98375.13;;;2.84;60.29
49297;BME280;35163;48.878;18.040;2023-03-04T07:56:23;98379.38;;;2.95;60.02
49297;BME280;35163;48.878;18.040;2023-03-04T07:58:50;98376.81;;;2.98;59.99
49297;BME280;35163;48.878;18.040;2023-03-04T08:01:23;98377.69;;;2.98;60.37
49297;BME280;35163;48.878;18.040;2023-03-04T08:03:50;98377.63;;;3.11;59.78
49297;BME280;35163;48.878;18.040;2023-03-04T08:06:18;98381.06;;;3.18;59.96
49297;BME280;35163;48.878;18.040;2023-03-04T08:08:46;98379.31;;;3.29;59.53
49297;BME280;35163;48.878;18.040;2023-03-04T08:11:19;98382.69;;;3.39;60.24
49297;BME280;35163;48.878;18.040;2023-03-04T08:13:46;98384.38;;;3.46;59.87
49297;BME280;35163;48.878;18.040;2023-03-04T08:16:15;98377.53;;;3.51;59.91
49297;BME280;35163;48.878;18.040;2023-03-04T08:18:44;98381.78;;;3.59;60.12
49297;BME280;35163;48.878;18.040;2023-03-04T08:21:11;98379.16;;;3.70;58.93
49297;BME280;35163;48.878;18.040;2023-03-04T08:23:40;98379.16;;;3.78;59.20
49297;BME280;35163;48.878;18.040;2023-03-04T08:26:13;98379.13;;;3.84;59.45
49297;BME280;35163;48.878;18.040;2023-03-04T08:28:41;98377.38;;;3.91;58.58
49297;BME280;35163;48.878;18.040;2023-03-04T08:31:15;98370.53;;;3.96;57.87
49297;BME280;35163;48.878;18.040;2023-03-04T08:33:43;98362.88;;;3.91;56.96
49297;BME280;35163;48.878;18.040;2023-03-04T08:36:10;98358.53;;;4.04;57.42
49297;BME280;35163;48.878;18.040;2023-03-04T08:38:36;98366.25;;;4.01;56.51
49297;BME280;35163;48.878;18.040;2023-03-04T08:41:03;98358.59;;;3.98;56.97
49297;BME280;35163;48.878;18.040;2023-03-04T08:43:30;98358.59;;;3.95;56.37
49297;BME280;35163;48.878;18.040;2023-03-04T08:45:58;98355.94;;;4.12;57.22
49297;BME280;35163;48.878;18.040;2023-03-04T08:48:24;98351.59;;;4.25;56.40
49297;BME280;35163;48.878;18.040;2023-03-04T08:50:51;98338.72;;;4.37;55.93
49297;BME280;35163;48.878;18.040;2023-03-04T08:53:21;98344.53;;;4.54;56.21
49297;BME280;35163;48.878;18.040;2023-03-04T08:55:51;98346.19;;;4.62;56.19
49297;BME280;35163;48.878;18.040;2023-03-04T08:58:18;98338.44;;;4.70;55.46
49297;BME280;35163;48.878;18.040;2023-03-04T09:00:46;98341.00;;;4.70;54.97
49297;BME280;35163;48.878;18.040;2023-03-04T09:03:14;98341.84;;;4.71;54.85
49297;BME280;35163;48.878;18.040;2023-03-04T09:05:43;98338.34;;;4.81;55.06
49297;BME280;35163;48.878;18.040;2023-03-04T09:08:10;98340.03;;;4.81;54.88
49297;BME280;35163;48.878;18.040;2023-03-04T09:10:36;98328.88;;;4.88;54.80
49297;BME280;35163;48.878;18.040;2023-03-04T09:13:03;98332.25;;;4.93;54.12
49297;BME280;35163;48.878;18.040;2023-03-04T09:15:32;98325.34;;;5.00;54.93
49297;BME280;35163;48.878;18.040;2023-03-04T09:18:02;98333.78;;;5.10;54.92
49297;BME280;35163;48.878;18.040;2023-03-04T09:20:29;98336.31;;;5.15;54.22
49297;BME280;35163;48.878;18.040;2023-03-04T09:22:56;98327.66;;;5.22;54.22
49297;BME280;35163;48.878;18.040;2023-03-04T09:25:23;98325.94;;;5.24;53.95
49297;BME280;35163;48.878;18.040;2023-03-04T09:27:50;98323.34;;;5.27;54.20
49297;BME280;35163;48.878;18.040;2023-03-04T09:30:16;98321.59;;;5.29;53.51
49297;BME280;35163;48.878;18.040;2023-03-04T09:32:43;98325.81;;;5.35;53.05
49297;BME280;35163;48.878;18.040;2023-03-04T09:35:10;98328.47;;;5.27;52.38
49297;BME280;35163;48.878;18.040;2023-03-04T09:37:37;98331.03;;;5.30;52.05
49297;BME280;35163;48.878;18.040;2023-03-04T09:40:07;98321.56;;;5.35;52.19
49297;BME280;35163;48.878;18.040;2023-03-04T09:42:42;98317.28;;;5.34;53.43
49297;BME280;35163;48.878;18.040;2023-03-04T09:45:15;98318.06;;;5.40;52.78
49297;BME280;35163;48.878;18.040;2023-03-04T09:47:43;98322.34;;;5.41;52.91
49297;BME280;35163;48.878;18.040;2023-03-04T09:50:11;98318.84;;;5.46;53.17
49297;BME280;35163;48.878;18.040;2023-03-04T09:57:54;98317.94;;;5.52;51.91
49297;BME280;35163;48.878;18.040;2023-03-04T10:05:32;98310.13;;;5.60;51.88
49297;BME280;35163;48.878;18.040;2023-03-04T10:10:44;98307.47;;;5.68;51.74
49297;BME280;35163;48.878;18.040;2023-03-04T10:13:18;98299.78;;;5.68;51.81
49297;BME280;35163;48.878;18.040;2023-03-04T10:15:48;98301.44;;;5.70;51.82
49297;BME280;35163;48.878;18.040;2023-03-04T10:18:23;98299.69;;;5.74;51.85
49297;BME280;35163;48.878;18.040;2023-03-04T10:21:16;98297.03;;;5.80;52.56
49297;BME280;35163;48.878;18.040;2023-03-04T10:23:45;98295.50;;;5.67;52.45
49297;BME280;35163;48.878;18.040;2023-03-04T10:26:16;98297.13;;;5.74;52.73
49297;BME280;35163;48.878;18.040;2023-03-04T10:28:47;98298.16;;;5.61;52.58
49297;BME280;35163;48.878;18.040;2023-03-04T10:31:26;98292.44;;;5.40;52.61
49297;BME280;35163;48.878;18.040;2023-03-04T10:33:55;98297.41;;;5.52;52.97
49297;BME280;35163;48.878;18.040;2023-03-04T10:39:06;98282.03;;;5.52;51.95
49297;BME280;35163;48.878;18.040;2023-03-04T10:41:33;98290.44;;;5.62;52.00
49297;BME280;35163;48.878;18.040;2023-03-04T10:44:14;98280.00;;;5.75;49.99
49297;BME280;35163;48.878;18.040;2023-03-04T10:46:46;98278.25;;;5.78;49.46
49297;BME280;35163;48.878;18.040;2023-03-04T10:49:16;98282.47;;;5.81;48.98
49297;BME280;35163;48.878;18.040;2023-03-04T10:51:48;98290.22;;;5.79;48.50
49297;BME280;35163;48.878;18.040;2023-03-04T10:54:19;98288.56;;;5.75;49.05
49297;BME280;35163;48.878;18.040;2023-03-04T10:57:19;98282.59;;;5.73;48.88
49297;BME280;35163;48.878;18.040;2023-03-04T10:59:55;98291.19;;;5.70;48.75
49297;BME280;35163;48.878;18.040;2023-03-04T11:02:26;98282.66;;;5.68;48.66
49297;BME280;35163;48.878;18.040;2023-03-04T11:04:56;98292.13;;;5.63;48.84
49297;BME280;35163;48.878;18.040;2023-03-04T11:07:30;98293.13;;;5.54;49.61
49297;BME280;35163;48.878;18.040;2023-03-04T11:10:38;98291.44;;;5.50;49.83
49297;BME280;35163;48.878;18.040;2023-03-04T11:13:25;98289.75;;;5.51;49.42
49297;BME280;35163;48.878;18.040;2023-03-04T11:18:43;98290.59;;;5.48;49.90
49297;BME280;35163;48.878;18.040;2023-03-04T11:21:23;98293.13;;;5.54;50.03
49297;BME280;35163;48.878;18.040;2023-03-04T11:23:55;98291.41;;;5.52;50.19
49297;BME280;35163;48.878;18.040;2023-03-04T11:26:28;98289.75;;;5.51;49.50
49297;BME280;35163;48.878;18.040;2023-03-04T11:34:19;98297.59;;;5.37;49.25
49297;BME280;35163;48.878;18.040;2023-03-04T11:36:56;98289.03;;;5.38;50.25
49297;BME280;35163;48.878;18.040;2023-03-04T11:39:41;98295.88;;;5.39;50.07
49297;BME280;35163;48.878;18.040;2023-03-04T11:44:44;98293.31;;;5.37;49.96
49297;BME280;35163;48.878;18.040;2023-03-04T11:47:25;98299.28;;;5.41;48.85
49297;BME280;35163;48.878;18.040;2023-03-04T11:53:22;98301.00;;;5.39;48.58
49297;BME280;35163;48.878;18.040;2023-03-04T12:03:45;98290.81;;;5.34;48.69
49297;BME280;35163;48.878;18.040;2023-03-04T12:17:17;98285.63;;;5.39;48.66
49297;BME280;35163;48.878;18.040;2023-03-04T12:31:33;98280.09;;;5.67;47.72
49297;BME280;35163;48.878;18.040;2023-03-04T12:37:36;98271.56;;;5.68;48.01
49297;BME280;35163;48.878;18.040;2023-03-04T12:46:10;98272.94;;;5.89;48.54
49297;BME280;35163;48.878;18.040;2023-03-04T12:48:47;98274.47;;;6.06;52.61
49297;BME280;35163;48.878;18.040;2023-03-04T12:51:29;98259.84;;;6.11;50.68
49297;BME280;35163;48.878;18.040;2023-03-04T12:54:13;98260.59;;;6.18;48.01
49297;BME280;35163;48.878;18.040;2023-03-04T12:56:49;98265.50;;;6.30;47.75
49297;BME280;35163;48.878;18.040;2023-03-04T12:59:19;98261.09;;;6.37;47.74
49297;BME280;35163;48.878;18.040;2023-03-04T13:01:52;98260.22;;;6.40;48.32
49297;BME280;35163;48.878;18.040;2023-03-04T13:04:47;98255.00;;;6.44;48.12
49297;BME280;35163;48.878;18.040;2023-03-04T13:10:06;98258.22;;;6.58;46.70
49297;BME280;35163;48.878;18.040;2023-03-04T13:12:55;98261.50;;;6.66;45.98
49297;BME280;35163;48.878;18.040;2023-03-04T13:17:52;98248.78;;;6.58;46.80
49297;BME280;35163;48.878;18.040;2023-03-04T13:25:41;98245.66;;;6.39;47.04
49297;BME280;35163;48.878;18.040;2023-03-04T13:35:58;98236.34;;;6.35;46.59
49297;BME280;35163;48.878;18.040;2023-03-04T13:41:22;98234.63;;;6.35;46.05
49297;BME280;35163;48.878;18.040;2023-03-04T13:43:50;98236.97;;;6.48;48.02
49297;BME280;35163;48.878;18.040;2023-03-04T13:59:23;98234.34;;;6.52;46.12
49297;BME280;35163;48.878;18.040;2023-03-04T14:02:07;98232.56;;;6.54;46.04
49297;BME280;35163;48.878;18.040;2023-03-04T14:04:41;98233.41;;;6.55;46.42
49297;BME280;35163;48.878;18.040;2023-03-04T14:12:31;98225.03;;;6.45;46.64
49297;BME280;35163;48.878;18.040;2023-03-04T14:15:02;98226.88;;;6.38;46.87
49297;BME280;35163;48.878;18.040;2023-03-04T14:17:34;98217.38;;;6.42;46.59
49297;BME280;35163;48.878;18.040;2023-03-04T14:20:22;98220.81;;;6.41;46.61
49297;BME280;35163;48.878;18.040;2023-03-04T14:22:49;98218.31;;;6.38;47.14
49297;BME280;35163;48.878;18.040;2023-03-04T14:25:26;98203.78;;;6.37;46.79
49297;BME280;35163;48.878;18.040;2023-03-04T14:28:16;98206.19;;;6.44;47.82
49297;BME280;35163;48.878;18.040;2023-03-04T14:30:51;98211.25;;;6.49;47.35
49297;BME280;35163;48.878;18.040;2023-03-04T14:33:22;98204.56;;;6.42;47.39
49297;BME280;35163;48.878;18.040;2023-03-04T14:35:56;98206.28;;;6.40;46.92
49297;BME280;35163;48.878;18.040;2023-03-04T14:38:25;98193.59;;;6.30;47.40
49297;BME280;35163;48.878;18.040;2023-03-04T14:40:58;98203.72;;;6.40;47.07
49297;BME280;35163;48.878;18.040;2023-03-04T14:43:26;98203.72;;;6.40;47.23
49297;BME280;35163;48.878;18.040;2023-03-04T14:45:57;98201.19;;;6.38;47.28
49297;BME280;35163;48.878;18.040;2023-03-04T14:48:27;98204.56;;;6.39;47.25
49297;BME280;35163;48.878;18.040;2023-03-04T14:50:56;98198.66;;;6.37;47.45
49297;BME280;35163;48.878;18.040;2023-03-04T14:53:31;98197.63;;;6.44;47.23
49297;BME280;35163;48.878;18.040;2023-03-04T14:56:03;98196.94;;;6.36;47.35
49297;BME280;35163;48.878;18.040;2023-03-04T14:58:35;98199.56;;;6.32;47.29
49297;BME280;35163;48.878;18.040;2023-03-04T15:01:18;98196.09;;;6.35;47.62